createdAt,value
2018-12-03T00:01:29.038Z,11.40
2018-12-03T00:04:15.443Z,11.40
2018-12-03T00:06:44.121Z,11.50
2018-12-03T00:09:12.468Z,11.40
2018-12-03T00:11:40.784Z,11.50
2018-12-03T00:14:09.195Z,11.50
2018-12-03T00:16:37.540Z,11.50
2018-12-03T00:19:06.636Z,11.50
2018-12-03T00:21:34.989Z,11.60
2018-12-03T00:24:03.468Z,11.50
2018-12-03T00:26:31.701Z,11.50
2018-12-03T00:28:59.970Z,11.50
2018-12-03T00:31:28.827Z,11.50
2018-12-03T00:33:57.239Z,11.60
2018-12-03T00:36:25.622Z,11.60
2018-12-03T00:38:53.900Z,11.60
2018-12-03T00:41:22.239Z,11.60
2018-12-03T00:43:50.562Z,11.60
2018-12-03T00:46:18.938Z,11.60
2018-12-03T00:48:47.377Z,11.60
2018-12-03T00:51:15.706Z,11.60
2018-12-03T00:53:44.077Z,11.60
2018-12-03T00:56:12.565Z,11.60
2018-12-03T00:58:40.915Z,11.60
2018-12-03T01:01:09.379Z,11.60
2018-12-03T01:03:37.844Z,11.60
2018-12-03T01:06:06.596Z,11.60
2018-12-03T01:08:35.265Z,11.60
2018-12-03T01:11:03.509Z,11.60
2018-12-03T01:13:31.763Z,11.60
2018-12-03T01:16:00.062Z,11.60
2018-12-03T01:18:28.329Z,11.70
2018-12-03T01:20:56.648Z,11.70
2018-12-03T01:23:25.024Z,11.70
2018-12-03T01:25:53.268Z,11.70
2018-12-03T01:28:21.604Z,11.80
2018-12-03T01:30:50.052Z,11.80
2018-12-03T01:33:18.322Z,11.80
2018-12-03T01:35:46.702Z,11.80
2018-12-03T01:38:15.090Z,11.80
2018-12-03T01:40:43.421Z,11.80
2018-12-03T01:43:11.753Z,11.80
2018-12-03T01:45:40.056Z,11.70
2018-12-03T01:48:08.372Z,11.80
2018-12-03T01:50:36.628Z,11.80
2018-12-03T01:53:04.950Z,11.80
2018-12-03T01:55:33.288Z,11.80
2018-12-03T01:58:01.610Z,11.80
2018-12-03T02:00:29.864Z,11.80
2018-12-03T02:02:58.181Z,11.80
2018-12-03T02:05:26.579Z,11.90
2018-12-03T02:07:54.864Z,11.90
2018-12-03T02:10:23.220Z,11.90
2018-12-03T02:12:51.516Z,11.90
2018-12-03T02:15:19.937Z,12.00
2018-12-03T02:17:48.174Z,11.90
2018-12-03T02:20:23.381Z,11.90
2018-12-03T02:22:51.647Z,11.90
2018-12-03T02:25:19.892Z,12.00
2018-12-03T02:27:48.277Z,12.00
2018-12-03T02:30:17.978Z,12.00
2018-12-03T02:32:46.195Z,12.00
2018-12-03T02:35:14.852Z,12.00
2018-12-03T02:37:43.299Z,12.00
2018-12-03T02:40:14.845Z,12.10
2018-12-03T02:42:43.307Z,12.10
2018-12-03T02:45:12.709Z,12.10
2018-12-03T02:47:41.107Z,12.10
2018-12-03T02:50:10.683Z,12.10
2018-12-03T02:52:38.949Z,12.10
2018-12-03T02:55:09.330Z,12.10
2018-12-03T02:57:37.854Z,12.10
2018-12-03T03:00:10.342Z,12.10
2018-12-03T03:02:38.606Z,12.10
2018-12-03T03:05:09.596Z,12.10
2018-12-03T03:07:37.936Z,12.10
2018-12-03T03:10:09.401Z,12.10
2018-12-03T03:12:37.640Z,12.10
2018-12-03T03:15:08.275Z,12.10
2018-12-03T03:17:39.449Z,12.10
2018-12-03T03:20:10.378Z,12.20
2018-12-03T03:22:38.647Z,12.20
2018-12-03T03:25:08.058Z,12.20
2018-12-03T03:27:36.473Z,12.20
2018-12-03T03:30:08.386Z,12.20
2018-12-03T03:32:36.689Z,12.20
2018-12-03T03:35:05.613Z,12.20
2018-12-03T03:37:34.030Z,12.20
2018-12-03T03:40:02.363Z,12.20
2018-12-03T03:42:30.619Z,12.20
2018-12-03T03:44:58.829Z,12.20
2018-12-03T03:47:27.110Z,12.20
2018-12-03T03:49:55.490Z,12.20
2018-12-03T03:52:23.952Z,12.20
2018-12-03T03:54:52.311Z,12.20
2018-12-03T03:57:20.726Z,12.20
2018-12-03T03:59:49.223Z,12.30
2018-12-03T04:02:17.608Z,12.20
2018-12-03T04:04:46.052Z,12.20
2018-12-03T04:07:14.477Z,12.20
2018-12-03T04:09:42.910Z,12.20
2018-12-03T04:12:11.350Z,12.20
2018-12-03T04:14:52.822Z,12.30
2018-12-03T04:17:21.318Z,12.30
2018-12-03T04:19:56.330Z,12.20
2018-12-03T04:22:24.949Z,12.30
2018-12-03T04:24:53.389Z,12.30
2018-12-03T04:27:21.937Z,12.30
2018-12-03T04:29:50.719Z,12.30
2018-12-03T04:32:19.203Z,12.30
2018-12-03T04:34:47.619Z,12.30
2018-12-03T04:37:15.974Z,12.30
2018-12-03T04:39:44.401Z,12.30
2018-12-03T04:42:12.775Z,12.30
2018-12-03T04:44:41.171Z,12.20
2018-12-03T04:47:09.620Z,12.20
2018-12-03T04:49:37.955Z,12.20
2018-12-03T04:52:06.520Z,12.20
2018-12-03T04:54:34.838Z,12.20
2018-12-03T04:57:03.294Z,12.30
2018-12-03T04:59:31.699Z,12.30
2018-12-03T05:01:59.966Z,12.30
2018-12-03T05:04:28.232Z,12.30
2018-12-03T05:06:56.757Z,12.30
2018-12-03T05:09:31.652Z,12.30
2018-12-03T05:12:00.474Z,12.30
2018-12-03T05:14:29.108Z,12.30
2018-12-03T05:16:57.652Z,12.30
2018-12-03T05:19:26.471Z,12.40
2018-12-03T05:21:54.850Z,12.40
2018-12-03T05:24:29.621Z,12.40
2018-12-03T05:26:58.208Z,12.40
2018-12-03T05:29:26.522Z,12.40
2018-12-03T05:31:54.977Z,12.40
2018-12-03T05:34:23.265Z,12.40
2018-12-03T05:36:52.430Z,12.40
2018-12-03T05:39:20.913Z,12.40
2018-12-03T05:41:49.333Z,12.40
2018-12-03T05:44:17.755Z,12.40
2018-12-03T05:46:46.067Z,12.40
2018-12-03T05:49:14.353Z,12.40
2018-12-03T05:51:42.736Z,12.40
2018-12-03T05:54:11.108Z,12.40
2018-12-03T05:56:39.435Z,12.40
2018-12-03T05:59:07.964Z,12.50
2018-12-03T06:01:36.388Z,12.40
2018-12-03T06:04:04.835Z,12.50
2018-12-03T06:06:33.177Z,12.50
2018-12-03T06:09:01.621Z,12.40
2018-12-03T06:11:30.196Z,12.40
2018-12-03T06:13:58.615Z,12.50
2018-12-03T06:16:27.162Z,12.50
2018-12-03T06:18:55.709Z,12.50
2018-12-03T06:21:24.034Z,12.50
2018-12-03T06:23:52.447Z,12.50
2018-12-03T06:26:21.187Z,12.50
2018-12-03T06:28:49.511Z,12.50
2018-12-03T06:31:17.935Z,12.50
2018-12-03T06:33:46.861Z,12.50
2018-12-03T06:36:15.329Z,12.50
2018-12-03T06:38:46.834Z,12.50
2018-12-03T06:41:15.355Z,12.50
2018-12-03T06:43:44.677Z,12.50
2018-12-03T06:46:13.711Z,12.40
2018-12-03T06:48:42.252Z,12.50
2018-12-03T06:51:10.680Z,12.50
2018-12-03T06:53:39.029Z,12.50
2018-12-03T06:56:07.409Z,12.60
2018-12-03T06:58:35.859Z,12.60
2018-12-03T07:01:05.807Z,12.60
2018-12-03T07:03:34.184Z,12.60
2018-12-03T07:06:02.856Z,12.60
2018-12-03T07:08:31.275Z,12.60
2018-12-03T07:11:00.032Z,12.60
2018-12-03T07:13:29.591Z,12.60
2018-12-03T07:15:58.122Z,12.60
2018-12-03T07:18:26.800Z,12.60
2018-12-03T07:20:55.416Z,12.70
2018-12-03T07:23:23.885Z,12.70
2018-12-03T07:25:52.560Z,12.70
2018-12-03T07:28:20.932Z,12.80
2018-12-03T07:30:49.726Z,12.80
2018-12-03T07:33:18.270Z,12.70
2018-12-03T07:35:46.824Z,12.70
2018-12-03T07:38:15.510Z,12.70
2018-12-03T07:40:44.384Z,12.80
2018-12-03T07:43:12.862Z,12.80
2018-12-03T07:45:41.507Z,12.80
2018-12-03T07:48:10.080Z,12.90
2018-12-03T07:50:38.730Z,12.90
2018-12-03T07:53:07.239Z,12.90
2018-12-03T07:55:35.646Z,12.90
2018-12-03T07:58:09.201Z,12.90
2018-12-03T08:00:40.597Z,12.90
2018-12-03T08:03:09.205Z,12.80
2018-12-03T08:05:42.686Z,12.80
2018-12-03T08:08:12.357Z,12.90
2018-12-03T08:10:47.597Z,12.80
2018-12-03T08:13:23.564Z,12.90
2018-12-03T08:15:52.364Z,12.90
2018-12-03T08:18:22.117Z,12.90
2018-12-03T08:20:54.349Z,12.90
2018-12-03T08:23:28.258Z,12.90
2018-12-03T08:25:58.559Z,12.90
2018-12-03T08:28:33.682Z,12.90
2018-12-03T08:31:02.346Z,12.90
2018-12-03T08:33:33.749Z,13.00
2018-12-03T08:36:03.872Z,13.00
2018-12-03T08:38:32.643Z,13.00
2018-12-03T08:41:05.687Z,13.00
2018-12-03T08:43:34.293Z,13.00
2018-12-03T08:46:05.482Z,13.00
2018-12-03T08:48:38.407Z,13.10
2018-12-03T08:51:07.517Z,13.10
2018-12-03T08:53:35.948Z,13.10
2018-12-03T08:56:04.503Z,13.20
2018-12-03T08:58:32.931Z,13.20
2018-12-03T09:01:10.998Z,13.30
2018-12-03T09:03:44.662Z,13.30
2018-12-03T09:06:15.380Z,13.30
2018-12-03T09:08:48.071Z,13.30
2018-12-03T09:11:17.633Z,13.30
2018-12-03T09:13:46.479Z,13.40
2018-12-03T09:16:14.861Z,13.40
2018-12-03T09:18:43.228Z,13.40
2018-12-03T09:21:17.882Z,13.50
2018-12-03T09:23:51.163Z,13.50
2018-12-03T09:26:19.686Z,13.50
2018-12-03T09:28:52.128Z,13.50
2018-12-03T09:31:22.809Z,13.50
2018-12-03T09:33:57.789Z,13.50
2018-12-03T09:36:26.923Z,13.50
2018-12-03T09:39:09.892Z,13.50
2018-12-03T09:41:38.305Z,13.50
2018-12-03T09:44:08.118Z,13.60
2018-12-03T09:46:36.762Z,13.50
2018-12-03T09:49:05.137Z,13.50
2018-12-03T09:51:34.743Z,13.60
2018-12-03T09:54:09.505Z,13.60
2018-12-03T09:56:44.304Z,13.70
2018-12-03T09:59:17.187Z,13.70
2018-12-03T10:01:47.026Z,13.70
2018-12-03T10:04:17.707Z,13.80
2018-12-03T10:06:52.483Z,13.80
2018-12-03T10:09:21.081Z,13.70
2018-12-03T10:11:49.648Z,13.80
2018-12-03T10:14:19.650Z,13.80
2018-12-03T10:16:48.360Z,13.80
2018-12-03T10:19:16.833Z,13.80
2018-12-03T10:21:47.367Z,13.80
2018-12-03T10:24:16.510Z,13.80
2018-12-03T10:26:45.538Z,13.80
2018-12-03T10:29:16.205Z,13.80
2018-12-03T10:31:44.794Z,13.90
2018-12-03T10:34:16.482Z,13.90
2018-12-03T10:36:50.179Z,13.90
2018-12-03T10:39:25.980Z,13.90
2018-12-03T10:41:58.140Z,13.80
2018-12-03T10:44:27.168Z,13.80
2018-12-03T10:46:55.597Z,13.70
2018-12-03T10:49:24.078Z,13.70
2018-12-03T10:51:52.535Z,13.70
2018-12-03T10:54:20.948Z,13.70
2018-12-03T10:56:49.422Z,13.60
2018-12-03T10:59:18.024Z,13.70
2018-12-03T11:01:50.893Z,13.70
2018-12-03T11:06:29.486Z,13.80
2018-12-03T11:08:58.080Z,13.70
2018-12-03T11:11:26.587Z,13.80
2018-12-03T11:13:54.854Z,13.90
2018-12-03T11:16:35.501Z,13.90
2018-12-03T11:19:03.934Z,13.90
2018-12-03T11:21:32.436Z,13.90
2018-12-03T11:24:01.285Z,13.90
2018-12-03T11:26:42.215Z,13.80
2018-12-03T11:29:11.395Z,13.80
2018-12-03T11:31:39.892Z,13.80
2018-12-03T11:34:08.357Z,13.80
2018-12-03T11:36:44.962Z,13.80
2018-12-03T11:39:17.790Z,13.80
2018-12-03T11:41:46.274Z,13.80
2018-12-03T11:44:14.755Z,13.80
2018-12-03T11:46:43.315Z,13.90
2018-12-03T11:49:11.904Z,13.90
2018-12-03T11:51:40.338Z,13.90
2018-12-03T11:54:09.097Z,13.90
2018-12-03T11:56:37.581Z,14.00
2018-12-03T11:59:06.105Z,14.00
2018-12-03T12:01:34.590Z,13.90
2018-12-03T12:04:03.261Z,13.90
2018-12-03T12:06:31.792Z,13.90
2018-12-03T12:09:00.160Z,13.90
2018-12-03T12:11:28.735Z,13.90
2018-12-03T12:13:58.144Z,14.00
2018-12-03T12:16:26.449Z,14.00
2018-12-03T12:18:55.002Z,13.90
2018-12-03T12:21:23.620Z,14.00
2018-12-03T12:23:51.969Z,14.00
2018-12-03T12:26:20.728Z,14.00
2018-12-03T12:28:49.200Z,14.10
2018-12-03T12:31:17.630Z,14.10
2018-12-03T12:33:45.989Z,14.00
2018-12-03T12:36:14.528Z,14.00
2018-12-03T12:38:42.869Z,14.00
2018-12-03T12:41:11.274Z,13.90
2018-12-03T12:43:39.525Z,13.90
2018-12-03T12:46:10.513Z,13.90
2018-12-03T12:48:38.931Z,13.90
2018-12-03T12:51:07.376Z,13.80
2018-12-03T12:53:36.809Z,13.80
2018-12-03T12:56:05.454Z,13.80
2018-12-03T12:58:33.707Z,13.80
2018-12-03T13:01:02.191Z,13.80
2018-12-03T13:03:30.771Z,13.80
2018-12-03T13:05:59.693Z,13.80
2018-12-03T13:08:28.178Z,13.80
2018-12-03T13:11:02.936Z,13.80
2018-12-03T13:13:31.374Z,13.70
2018-12-03T13:15:59.738Z,13.70
2018-12-03T13:18:29.247Z,13.60
2018-12-03T13:20:58.122Z,13.60
2018-12-03T13:23:26.899Z,13.70
2018-12-03T13:25:55.434Z,13.70
2018-12-03T13:28:24.144Z,13.80
2018-12-03T13:30:52.596Z,13.70
2018-12-03T13:33:20.906Z,13.70
2018-12-03T13:35:49.436Z,13.60
2018-12-03T13:38:17.838Z,13.60
2018-12-03T13:40:46.216Z,13.60
2018-12-03T13:43:14.697Z,13.60
2018-12-03T13:45:43.284Z,13.60
2018-12-03T13:48:11.843Z,13.60
2018-12-03T13:50:40.362Z,13.60
2018-12-03T13:53:09.364Z,13.60
2018-12-03T13:55:37.928Z,13.60
2018-12-03T13:58:06.804Z,13.60
2018-12-03T14:00:35.216Z,13.60
2018-12-03T14:03:10.918Z,13.60
2018-12-03T14:05:45.733Z,13.60
2018-12-03T14:08:43.210Z,13.60
2018-12-03T14:11:36.399Z,13.60
2018-12-03T14:16:15.539Z,13.60
2018-12-03T14:18:48.348Z,13.60
2018-12-03T14:21:20.853Z,13.60
2018-12-03T14:23:51.589Z,13.50
2018-12-03T14:26:20.502Z,13.50
2018-12-03T14:28:48.900Z,13.50
2018-12-03T14:31:17.299Z,13.50
2018-12-03T14:33:45.610Z,13.50
2018-12-03T14:36:14.027Z,13.40
2018-12-03T14:38:42.976Z,13.40
2018-12-03T14:41:12.038Z,13.40
2018-12-03T14:43:40.352Z,13.40
2018-12-03T14:46:08.805Z,13.40
2018-12-03T14:48:37.260Z,13.40
2018-12-03T14:51:05.724Z,13.40
2018-12-03T14:53:34.588Z,13.40
2018-12-03T14:56:03.045Z,13.40
2018-12-03T14:58:31.414Z,13.40
2018-12-03T15:01:00.001Z,13.40
2018-12-03T15:03:28.702Z,13.40
2018-12-03T15:05:57.793Z,13.40
2018-12-03T15:08:26.236Z,13.30
2018-12-03T15:10:54.685Z,13.40
2018-12-03T15:13:23.373Z,13.40
2018-12-03T15:15:59.924Z,13.40
2018-12-03T15:18:28.479Z,13.40
2018-12-03T15:20:58.043Z,13.40
2018-12-03T15:23:26.608Z,13.40
2018-12-03T15:25:54.972Z,13.40
2018-12-03T15:28:23.217Z,13.40
2018-12-03T15:30:51.605Z,13.40
2018-12-03T15:33:20.004Z,13.40
2018-12-03T15:35:48.553Z,13.40
2018-12-03T15:38:16.868Z,13.40
2018-12-03T15:40:45.248Z,13.30
2018-12-03T15:43:16.446Z,13.30
2018-12-03T15:45:45.054Z,13.30
2018-12-03T15:48:13.542Z,13.30
2018-12-03T15:50:42.248Z,13.30
2018-12-03T15:53:10.630Z,13.30
2018-12-03T15:55:39.180Z,13.30
2018-12-03T15:58:08.275Z,13.30
2018-12-03T16:00:36.574Z,13.20
2018-12-03T16:03:05.246Z,13.20
2018-12-03T16:05:33.566Z,13.20
2018-12-03T16:08:01.945Z,13.20
2018-12-03T16:10:30.629Z,13.20
2018-12-03T16:12:59.091Z,13.20
2018-12-03T16:15:27.519Z,13.20
2018-12-03T16:17:56.556Z,13.20
2018-12-03T16:20:25.971Z,13.20
2018-12-03T16:22:54.675Z,13.20
2018-12-03T16:25:23.236Z,13.20
2018-12-03T16:27:51.899Z,13.10
2018-12-03T16:30:22.238Z,13.20
2018-12-03T16:32:50.885Z,13.20
2018-12-03T16:35:19.472Z,13.20
2018-12-03T16:37:47.883Z,13.20
2018-12-03T16:40:16.381Z,13.20
2018-12-03T16:42:45.728Z,13.10
2018-12-03T16:45:14.348Z,13.10
2018-12-03T16:47:42.815Z,13.10
2018-12-03T16:50:11.498Z,13.10
2018-12-03T16:52:40.418Z,13.20
2018-12-03T16:55:08.763Z,13.20
2018-12-03T16:57:37.198Z,13.20
2018-12-03T17:00:11.822Z,13.20
2018-12-03T17:02:40.357Z,13.20
2018-12-03T17:05:13.877Z,13.20
2018-12-03T17:07:42.745Z,13.20
2018-12-03T17:10:14.333Z,13.20
2018-12-03T17:12:43.093Z,13.20
2018-12-03T17:15:11.575Z,13.10
2018-12-03T17:17:40.578Z,13.10
2018-12-03T17:20:14.544Z,13.20
2018-12-03T17:22:53.448Z,13.20
2018-12-03T17:25:27.019Z,13.20
2018-12-03T17:27:55.578Z,13.20
2018-12-03T17:30:25.706Z,13.10
2018-12-03T17:32:54.101Z,13.10
2018-12-03T17:35:22.577Z,13.10
2018-12-03T17:37:52.337Z,13.10
2018-12-03T17:40:27.660Z,13.10
2018-12-03T17:42:56.238Z,13.10
2018-12-03T17:45:31.436Z,13.10
2018-12-03T17:48:00.231Z,13.10
2018-12-03T17:50:28.549Z,13.10
2018-12-03T17:52:57.023Z,13.00
2018-12-03T17:55:25.497Z,13.00
2018-12-03T17:57:53.973Z,13.00
2018-12-03T18:00:22.637Z,13.00
2018-12-03T18:02:51.246Z,13.00
2018-12-03T18:05:19.835Z,13.00
2018-12-03T18:07:48.287Z,13.00
2018-12-03T18:10:16.736Z,13.00
2018-12-03T18:12:45.541Z,12.90
2018-12-03T18:15:14.151Z,12.90
2018-12-03T18:17:42.744Z,12.90
2018-12-03T18:20:11.265Z,12.90
2018-12-03T18:22:39.684Z,12.90
2018-12-03T18:25:08.164Z,12.90
2018-12-03T18:27:36.527Z,12.90
2018-12-03T18:30:06.984Z,12.80
2018-12-03T18:32:35.327Z,12.80
2018-12-03T18:35:03.757Z,12.80
2018-12-03T18:37:32.129Z,12.80
2018-12-03T18:40:01.052Z,12.70
2018-12-03T18:42:29.346Z,12.70
2018-12-03T18:44:57.620Z,12.70
2018-12-03T18:47:26.017Z,12.70
2018-12-03T18:49:58.016Z,12.70
2018-12-03T18:52:26.511Z,12.60
2018-12-03T18:54:54.881Z,12.60
2018-12-03T18:57:23.403Z,12.70
2018-12-03T18:59:51.868Z,12.70
2018-12-03T19:02:20.216Z,12.70
2018-12-03T19:04:48.632Z,12.70
2018-12-03T19:07:17.121Z,12.60
2018-12-03T19:09:45.628Z,12.70
2018-12-03T19:12:14.150Z,12.60
2018-12-03T19:14:42.784Z,12.60
2018-12-03T19:17:11.209Z,12.60
2018-12-03T19:19:39.571Z,12.60
2018-12-03T19:22:08.049Z,12.60
2018-12-03T19:24:36.696Z,12.60
2018-12-03T19:27:05.271Z,12.60
2018-12-03T19:29:38.823Z,12.60
2018-12-03T19:32:02.312Z,12.60
2018-12-03T19:34:30.901Z,12.60
2018-12-03T19:37:00.402Z,12.60
2018-12-03T19:39:29.284Z,12.60
2018-12-03T19:41:57.720Z,12.60
2018-12-03T19:44:26.060Z,12.60
2018-12-03T19:46:54.615Z,12.50
2018-12-03T19:49:23.215Z,12.50
2018-12-03T19:51:51.745Z,12.50
2018-12-03T19:54:20.778Z,12.60
2018-12-03T19:56:49.571Z,12.50
2018-12-03T19:59:18.704Z,12.60
2018-12-03T20:01:47.257Z,12.60
2018-12-03T20:04:34.814Z,12.60
2018-12-03T20:07:04.568Z,12.50
2018-12-03T20:09:33.411Z,12.50
2018-12-03T20:12:02.019Z,12.60
2018-12-03T20:14:30.395Z,12.60
2018-12-03T20:16:59.843Z,12.60
2018-12-03T20:19:28.344Z,12.60
2018-12-03T20:21:56.918Z,12.50
2018-12-03T20:24:27.505Z,12.50
2018-12-03T20:27:05.585Z,12.50
2018-12-03T20:29:45.110Z,12.50
2018-12-03T20:32:52.918Z,12.50
2018-12-03T20:35:26.210Z,12.50
2018-12-03T20:38:05.708Z,12.50
2018-12-03T20:40:45.683Z,12.50
2018-12-03T20:43:18.464Z,12.50
2018-12-03T20:47:55.279Z,12.40
2018-12-03T20:50:47.234Z,12.40
2018-12-03T20:53:19.388Z,12.40
2018-12-03T20:55:48.605Z,12.40
2018-12-03T20:58:17.121Z,12.40
2018-12-03T21:00:45.616Z,12.40
2018-12-03T21:03:14.096Z,12.40
2018-12-03T21:05:42.709Z,12.40
2018-12-03T21:08:11.163Z,12.40
2018-12-03T21:10:39.546Z,12.40
2018-12-03T21:13:08.122Z,12.40
2018-12-03T21:15:37.233Z,12.40
2018-12-03T21:18:05.768Z,12.40
2018-12-03T21:27:36.145Z,12.50
2018-12-03T21:30:05.162Z,12.50
2018-12-03T21:32:34.387Z,12.50
2018-12-03T21:35:03.500Z,12.50
2018-12-03T21:37:32.526Z,12.50
2018-12-03T21:40:00.962Z,12.50
2018-12-03T21:43:03.161Z,12.50
2018-12-03T21:45:31.842Z,12.50
2018-12-03T21:48:00.182Z,12.50
2018-12-03T21:50:28.682Z,12.50
2018-12-03T21:52:57.350Z,12.50
2018-12-03T21:55:32.539Z,12.50
2018-12-03T21:58:01.225Z,12.50
2018-12-03T22:00:29.824Z,12.50
2018-12-03T22:02:58.396Z,12.50
2018-12-03T22:05:28.173Z,12.50
2018-12-03T22:07:56.843Z,12.50
2018-12-03T22:10:25.552Z,12.50
2018-12-03T22:12:53.967Z,12.40
2018-12-03T22:15:22.492Z,12.40
2018-12-03T22:17:50.973Z,12.40
2018-12-03T22:20:19.284Z,12.40
2018-12-03T22:22:47.766Z,12.40
2018-12-03T22:25:16.492Z,12.50
2018-12-03T22:27:45.011Z,12.50
2018-12-03T22:30:13.513Z,12.50
2018-12-03T22:32:41.979Z,12.50
2018-12-03T22:35:10.353Z,12.50
2018-12-03T22:37:38.792Z,12.50
2018-12-03T22:40:07.230Z,12.50
2018-12-03T22:42:35.495Z,12.50
2018-12-03T22:45:07.371Z,12.60
2018-12-03T22:47:35.701Z,12.60
2018-12-03T22:50:05.295Z,12.60
2018-12-03T22:52:42.036Z,12.60
2018-12-03T22:55:11.432Z,12.60
2018-12-03T22:57:39.879Z,12.60
2018-12-03T23:00:20.855Z,12.60
2018-12-03T23:02:49.678Z,12.60
2018-12-03T23:05:20.061Z,12.60
2018-12-03T23:07:50.344Z,12.60
2018-12-03T23:10:18.994Z,12.60
2018-12-03T23:12:47.369Z,12.60
2018-12-03T23:15:15.950Z,12.60
2018-12-03T23:17:44.252Z,12.60
2018-12-03T23:20:12.524Z,12.60
2018-12-03T23:22:40.895Z,12.60
2018-12-03T23:25:09.426Z,12.60
2018-12-03T23:27:37.765Z,12.60
2018-12-03T23:30:07.822Z,12.60
2018-12-03T23:32:36.178Z,12.60
2018-12-03T23:35:05.438Z,12.60
2018-12-03T23:37:33.943Z,12.60
2018-12-03T23:40:02.424Z,12.60
2018-12-03T23:42:30.697Z,12.60
2018-12-03T23:44:59.036Z,12.60
2018-12-03T23:47:27.381Z,12.60
2018-12-03T23:49:58.421Z,12.60
2018-12-03T23:52:26.777Z,12.60
2018-12-03T23:54:55.280Z,12.60
2018-12-03T23:57:23.742Z,12.70
2018-12-03T23:59:52.278Z,12.70
